Latest Weather Observations for Hobart Airport

IDT60901

Issued at 1:11 am EDT Wednesday 29 January 2020 (issued every 10 minutes, with the page automatically refreshed every 10 minutes)

About weather observations | Map of Hobart area stations | Latest observations for Hobart area | Other Formats
Station Details ID: 094008 Name: HOBART AIRPORT Lat: -42.83 Lon: 147.50 Height: 4.0 m
Data from the previous 72 hours. | See also: Recent months at Hobart Airport
Date/Time
EDT
Temp
°C
App
Temp
°C
Dew
Point
°C
Rel
Hum
%
Delta-T
°C
Wind Press
QNH
hPa
Press
MSL
hPa
Rain since
9am
mm
Dir  Spd
km/h
Gust
km/h
Spd
kts
Gust
kts
29/01:00am 17.7 15.6 11.3 66 3.5 NNW 13 17 7 9 1011.5 1011.4 0.0
29/12:30am 18.2 15.7 11.2 63 3.8 NW 15 22 8 12 1011.3 1011.2 0.0
29/12:00am 18.4 15.3 11.5 64 3.8 NW 19 24 10 13 1011.3 1011.2 0.0
 
Date/Time
EDT
Temp
°C
App
Temp
°C
Dew
Point
°C
Rel
Hum
%
Delta-T
°C
Wind Press
QNH
hPa
Press
MSL
hPa
Rain since
9am
mm
Dir  Spd
km/h
Gust
km/h
Spd
kts
Gust
kts
28/11:30pm 18.4 15.7 11.7 65 3.7 NW 17 26 9 14 1011.3 1011.2 0.0
28/11:00pm 18.7 15.9 11.4 62 4.0 WNW 17 20 9 11 1011.4 1011.3 0.0
28/10:30pm 18.9 15.1 11.0 60 4.3 WNW 22 32 12 17 1011.2 1011.1 0.0
28/10:00pm 19.1 16.3 11.2 60 4.3 WNW 17 24 9 13 1010.9 1010.8 0.0
28/09:30pm 19.5 16.3 11.1 58 4.6 NW 19 26 10 14 1010.7 1010.6 0.0
28/09:00pm 20.0 15.2 10.2 53 5.3 WNW 26 32 14 17 1010.1 1010.0 0.0
28/08:30pm 20.7 15.4 10.0 50 5.8 WNW 28 35 15 19 1010.1 1010.0 0.0
28/08:00pm 21.3 17.5 9.8 48 6.2 W 20 32 11 17 1009.9 1009.8 0.0
28/07:30pm 21.9 17.4 9.9 46 6.5 WNW 24 32 13 17 1009.2 1009.1 0.0
28/07:00pm 23.0 18.1 9.8 43 7.2 W 26 33 14 18 1008.7 1008.6 0.0
28/06:30pm 23.5 18.1 11.0 45 7.0 WNW 30 37 16 20 1008.5 1008.4 0.0
28/06:11pm 22.9 17.7 10.4 45 6.9 WNW 28 50 15 27 1008.3 1008.2 0.0
28/06:00pm 23.0 17.1 10.3 44 7.0 WNW 32 39 17 21 1008.2 1008.1 0.0
28/05:30pm 24.4 19.0 11.0 43 7.5 NW 30 43 16 23 1007.9 1007.8 0.0
28/05:00pm 24.6 18.9 9.9 39 8.1 W 30 48 16 26 1007.9 1007.8 0.0
28/04:52pm 23.2 18.4 11.7 48 6.5 WNW 28 48 15 26 1007.8 1007.7 0.0
28/04:30pm 24.2 18.5 9.8 40 7.9 WNW 30 43 16 23 1008.0 1007.9 0.0
28/04:00pm 24.2 19.1 9.1 38 8.2 W 26 39 14 21 1008.0 1007.9 0.0
28/03:30pm 24.8 19.1 8.2 34 8.9 WNW 28 37 15 20 1008.0 1007.9 0.0
28/03:00pm 24.0 18.2 9.3 39 8.0 NW 30 39 16 21 1008.0 1007.9 0.0
28/02:30pm 23.9 17.5 8.4 37 8.3 WNW 32 39 17 21 1007.8 1007.7 0.0
28/02:15pm 25.0 18.9 8.2 34 9.0 WNW 30 48 16 26 1007.6 1007.5 0.0
28/02:00pm 25.7 19.5 8.0 32 9.5 WNW 30 44 16 24 1007.9 1007.8 0.0
28/01:30pm 25.2 18.1 8.0 33 9.2 W 35 59 19 32 1007.9 1007.8 0.0
28/01:22pm 24.7 17.5 7.5 33 9.1 WNW 35 59 19 32 1007.9 1007.8 0.0
28/01:03pm 24.8 18.3 8.2 34 8.9 WNW 32 50 17 27 1007.8 1007.7 0.0
28/01:00pm 25.1 18.4 8.1 34 9.1 WNW 33 50 18 27 1007.9 1007.8 0.0
28/12:33pm 23.9 18.1 8.1 36 8.4 WNW 28 46 15 25 1008.1 1008.0 0.0
28/12:30pm 23.7 17.2 8.1 37 8.3 WNW 32 46 17 25 1008.2 1008.1 0.0
28/12:00pm 23.8 18.1 8.2 37 8.3 WNW 28 39 15 21 1008.3 1008.2 0.0
28/11:30am 22.3 16.2 8.3 40 7.4 NW 30 37 16 20 1008.8 1008.7 0.0
28/11:00am 20.7 15.0 8.3 45 6.5 NW 28 37 15 20 1009.2 1009.1 0.0
28/10:30am 19.7 13.1 7.9 46 6.1 NW 32 43 17 23 1009.5 1009.4 0.0
28/10:00am 19.5 12.8 7.3 45 6.2 NW 32 41 17 22 1009.6 1009.5 0.0
28/09:30am 17.2 11.6 7.0 51 5.1 NW 26 35 14 19 1009.8 1009.7 0.0
28/09:00am 17.1 11.8 6.8 50 5.1 WNW 24 32 13 17 1009.9 1009.8 0.0
28/08:30am 16.8 11.0 6.4 50 5.1 NW 26 33 14 18 1009.5 1009.4 0.0
28/08:00am 16.7 10.9 6.3 50 5.1 WNW 26 33 14 18 1009.7 1009.6 0.0
28/07:30am 16.5 9.9 6.0 50 5.1 NW 30 39 16 21 1009.7 1009.6 0.0
28/07:00am 16.2 11.7 6.1 51 4.9 NW 19 26 10 14 1009.4 1009.3 0.0
28/06:30am 16.1 10.7 6.3 52 4.8 NW 24 33 13 18 1009.4 1009.3 0.0
28/06:00am 15.9 9.7 6.3 53 4.7 NW 28 35 15 19 1009.2 1009.1 0.0
28/05:30am 16.1 10.6 5.7 50 5.0 NW 24 32 13 17 1009.0 1008.9 0.0
28/05:00am 16.1 11.4 6.0 51 4.9 NNW 20 30 11 16 1009.5 1009.4 0.0
28/04:30am 16.0 11.3 5.9 51 4.9 NNW 20 32 11 17 1009.2 1009.1 0.0
28/04:00am 16.2 11.5 6.1 51 4.9 NNW 20 30 11 16 1010.0 1009.9 0.0
28/03:30am 16.4 10.7 5.1 47 5.4 NNW 24 33 13 18 1009.8 1009.7 0.0
28/03:00am 16.7 9.6 5.5 47 5.4 NW 32 41 17 22 1010.4 1010.3 0.0
28/02:45am 16.9 10.1 5.2 46 5.6 NW 30 48 16 26 1010.4 1010.3 0.0
28/02:30am 17.0 11.6 4.6 44 5.9 NW 22 35 12 19 1010.4 1010.3 0.0
28/02:00am 16.6 12.1 6.2 50 5.1 NNW 19 30 10 16 1010.5 1010.4 0.0
28/01:30am 16.7 12.4 5.2 46 5.5 NNW 17 26 9 14 1010.7 1010.6 0.0
28/01:00am 16.3 12.7 5.2 47 5.3 NNW 13 15 7 8 1011.6 1011.5 0.0
28/12:30am 16.2 13.6 5.9 50 5.0 N 9 11 5 6 1011.8 1011.7 0.0
28/12:00am 16.5 13.3 6.8 52 4.8 N 13 17 7 9 1011.9 1011.8 0.0
 
Date/Time
EDT
Temp
°C
App
Temp
°C
Dew
Point
°C
Rel
Hum
%
Delta-T
°C
Wind Press
QNH
hPa
Press
MSL
hPa
Rain since
9am
mm
Dir  Spd
km/h
Gust
km/h
Spd
kts
Gust
kts
27/11:30pm 16.6 13.8 6.9 52 4.8 NNE 11 15 6 8 1012.2 1012.1 0.0
27/11:00pm 17.1 13.0 4.4 43 6.0 NW 15 19 8 10 1012.1 1012.0 0.0
27/10:30pm 17.3 13.5 4.1 41 6.2 NW 13 22 7 12 1012.4 1012.3 0.0
27/10:00pm 17.8 14.0 3.7 39 6.6 W 13 19 7 10 1012.3 1012.2 0.0
27/09:30pm 16.7 15.6 8.3 57 4.3 SW 4 9 2 5 1012.2 1012.1 0.0
27/09:00pm 16.6 15.4 9.7 63 3.6 NNE 6 9 3 5 1012.0 1011.9 0.0
27/08:30pm 17.9 16.3 8.6 54 4.8 ESE 7 9 4 5 1011.7 1011.6 0.0
27/08:00pm 18.4 15.5 9.7 57 4.6 SSE 15 19 8 10 1011.3 1011.2 0.0
27/07:30pm 19.8 15.4 6.7 42 6.6 SSW 19 26 10 14 1010.9 1010.8 0.0
27/07:00pm 21.3 16.5 4.8 34 8.1 WSW 19 28 10 15 1010.7 1010.6 0.0
27/06:30pm 21.5 15.7 4.3 32 8.4 WSW 24 37 13 20 1010.4 1010.3 0.0
27/06:00pm 21.7 15.8 4.0 31 8.6 W 24 33 13 18 1010.5 1010.4 0.0
27/05:30pm 22.1 16.5 3.4 29 9.0 WNW 22 32 12 17 1010.4 1010.3 0.0
27/05:00pm 22.4 16.4 3.3 28 9.2 WNW 24 41 13 22 1010.2 1010.1 0.0
27/04:30pm 22.0 15.1 2.6 28 9.2 WNW 28 39 15 21 1010.4 1010.3 0.0
27/04:19pm 21.5 14.5 2.0 27 9.1 W 28 46 15 25 1010.5 1010.4 0.0
27/04:00pm 22.4 16.7 3.0 28 9.3 NW 22 39 12 21 1010.3 1010.2 0.0
27/03:30pm 21.4 14.6 3.1 30 8.7 W 28 39 15 21 1010.3 1010.2 0.0
27/03:06pm 22.0 14.2 2.9 28 9.1 WNW 33 52 18 28 1010.4 1010.3 0.0
27/03:00pm 22.1 14.3 2.7 28 9.2 WNW 33 50 18 27 1010.6 1010.5 0.0
27/02:55pm 22.6 16.1 6.6 35 8.2 NW 30 50 16 27 1010.5 1010.4 0.0
27/02:30pm 19.7 13.4 3.7 34 7.6 NW 26 37 14 20 1011.1 1011.0 0.0
27/02:00pm 21.6 16.7 5.3 34 8.1 NNW 20 30 11 16 1011.2 1011.1 0.0
27/01:30pm 19.5 13.4 4.6 37 7.2 NW 26 33 14 18 1011.4 1011.3 0.0
27/01:00pm 18.3 13.4 5.1 41 6.4 NNW 20 30 11 16 1011.6 1011.5 0.0
27/12:30pm 17.6 12.8 5.4 44 5.9 NW 20 30 11 16 1011.7 1011.6 0.0
27/12:00pm 17.2 12.4 5.4 45 5.7 NW 20 26 11 14 1012.0 1011.9 0.0
27/11:30am 16.7 12.9 5.8 48 5.3 NW 15 19 8 10 1012.2 1012.1 0.0
27/11:00am 16.7 12.5 5.5 47 5.4 NW 17 22 9 12 1012.2 1012.1 0.0
27/10:30am 16.1 11.3 5.7 50 5.0 NW 20 26 11 14 1012.1 1012.0 0.0
27/10:00am 16.1 11.3 4.9 47 5.3 NW 19 28 10 15 1012.2 1012.1 0.0
27/09:30am 16.0 11.1 5.0 48 5.2 NW 20 32 11 17 1012.6 1012.5 0.0
27/09:00am 16.0 11.0 4.8 47 5.3 NW 20 32 11 17 1012.4 1012.3 0.0
27/08:30am 15.9 12.2 4.6 47 5.3 NNW 13 22 7 12 1012.2 1012.1 0.0
27/08:00am 15.6 10.8 4.5 47 5.2 NW 19 24 10 13 1012.4 1012.3 0.0
27/07:30am 15.4 11.8 5.0 50 4.9 NNW 13 17 7 9 1012.2 1012.1 0.0
27/07:00am 15.3 11.8 5.4 51 4.7 NNW 13 19 7 10 1011.9 1011.8 0.0
27/06:30am 15.1 12.1 5.9 54 4.4 NNW 11 17 6 9 1012.0 1011.9 0.0
27/06:00am 15.4 10.6 4.5 48 5.1 WNW 19 26 10 14 1012.2 1012.1 0.0
27/05:30am 15.1 10.7 4.9 50 4.8 NW 17 24 9 13 1011.7 1011.6 0.0
27/05:00am 15.5 12.2 4.6 48 5.1 NNW 11 17 6 9 1011.4 1011.3 0.0
27/04:30am 15.6 11.9 4.2 46 5.3 NNW 13 22 7 12 1011.6 1011.5 0.0
27/04:00am 15.5 10.4 4.3 47 5.2 NW 20 28 11 15 1012.3 1012.2 0.0
27/03:30am 15.6 11.2 4.5 47 5.2 NNW 17 26 9 14 1012.1 1012.0 0.0
27/03:00am 15.6 11.9 4.2 46 5.3 NNW 13 20 7 11 1012.0 1011.9 0.0
27/02:30am 15.7 10.7 3.8 45 5.5 NNW 19 32 10 17 1011.7 1011.6 0.0
27/02:00am 15.8 9.8 3.3 43 5.7 NW 24 33 13 18 1011.7 1011.6 0.0
27/01:30am 15.9 8.5 3.8 44 5.6 NW 32 41 17 22 1011.5 1011.4 0.0
27/01:00am 16.0 11.5 4.2 45 5.5 NNW 17 28 9 15 1012.1 1012.0 0.0
27/12:30am 16.1 11.2 4.1 45 5.6 NW 19 30 10 16 1012.0 1011.9 0.0
27/12:00am 16.0 11.9 4.5 46 5.4 NNW 15 26 8 14 1012.0 1011.9 0.0
 
Date/Time
EDT
Temp
°C
App
Temp
°C
Dew
Point
°C
Rel
Hum
%
Delta-T
°C
Wind Press
QNH
hPa
Press
MSL
hPa
Rain since
9am
mm
Dir  Spd
km/h
Gust
km/h
Spd
kts
Gust
kts
26/11:30pm 16.2 11.1 4.2 45 5.6 NNW 20 28 11 15 1012.4 1012.3 0.0
26/11:00pm 16.2 11.7 4.2 45 5.6 NNW 17 26 9 14 1013.0 1012.9 0.0
26/10:30pm 15.6 12.2 5.8 52 4.7 NW 13 15 7 8 1013.1 1013.0 0.0
26/10:00pm 16.4 12.5 3.4 42 6.0 WNW 13 19 7 10 1012.5 1012.4 0.0
26/09:30pm 16.7 11.4 2.9 39 6.3 WNW 20 32 11 17 1012.2 1012.1 0.0
26/09:00pm 16.8 11.6 2.5 38 6.5 W 19 26 10 14 1011.4 1011.3 0.0
26/08:30pm 17.3 10.3 2.0 35 6.9 W 28 35 15 19 1011.0 1010.9 0.0
26/08:00pm 18.2 10.4 1.5 32 7.5 W 32 41 17 22 1010.1 1010.0 0.0
26/07:30pm 18.7 12.2 2.7 34 7.4 NW 26 35 14 19 1009.9 1009.8 0.0
26/07:00pm 19.6 13.3 3.6 34 7.6 WNW 26 33 14 18 1009.7 1009.6 0.0
26/06:30pm 20.1 13.5 4.1 35 7.7 NW 28 43 15 23 1008.8 1008.7 0.0
26/06:03pm 20.7 13.0 3.5 32 8.2 WNW 33 52 18 28 1008.7 1008.6 0.0
26/06:00pm 21.0 13.9 3.7 32 8.3 WNW 30 46 16 25 1008.7 1008.6 0.0
26/05:30pm 19.9 12.5 4.1 35 7.6 WNW 32 52 17 28 1008.5 1008.4 0.0
26/05:27pm 20.4 13.0 4.0 34 7.9 WNW 32 52 17 28 1008.4 1008.3 0.0
26/05:00pm 20.7 13.6 5.6 37 7.5 W 32 41 17 22 1008.3 1008.2 0.0
26/04:30pm 20.0 12.7 4.5 36 7.5 W 32 41 17 22 1007.8 1007.7 0.0
26/04:00pm 21.2 14.6 4.1 32 8.3 WNW 28 46 15 25 1007.9 1007.8 0.0
26/03:40pm 20.7 12.6 3.2 31 8.3 WNW 35 54 19 29 1007.9 1007.8 0.0
26/03:30pm 22.1 14.4 3.4 29 9.0 WNW 33 44 18 24 1007.5 1007.4 0.0
26/03:05pm 20.4 12.6 4.9 36 7.6 WNW 35 54 19 29 1007.7 1007.6 0.0
26/03:00pm 20.7 12.5 4.8 35 7.8 WNW 37 54 20 29 1007.6 1007.5 0.0
26/02:30pm 21.6 14.5 6.2 36 7.8 WNW 33 52 18 28 1007.5 1007.4 0.0
26/02:12pm 21.6 14.4 5.1 34 8.2 WNW 32 50 17 27 1007.3 1007.2 0.0
26/02:00pm 22.9 15.4 4.5 30 9.1 WNW 33 48 18 26 1007.0 1006.9 0.0
26/01:43pm 22.4 15.7 5.5 33 8.5 WNW 30 48 16 26 1007.0 1006.9 0.0
26/01:30pm 21.6 15.5 6.8 38 7.6 WNW 28 39 15 21 1007.0 1006.9 0.0
26/01:00pm 21.7 16.7 8.2 42 7.1 W 24 37 13 20 1006.8 1006.7 0.0
26/12:30pm 22.0 18.4 8.4 41 7.2 SSE 17 28 9 15 1006.5 1006.4 0.0
26/12:00pm 20.2 17.0 11.3 56 4.9 SE 19 26 10 14 1006.5 1006.4 0.0
26/11:30am 20.0 16.8 11.9 59 4.5 SE 20 28 11 15 1006.0 1005.9 0.0
26/11:00am 20.6 18.9 12.5 59 4.6 SSE 13 20 7 11 1006.5 1006.4 0.0
26/10:30am 19.0 17.7 13.6 71 3.1 SE 13 17 7 9 1006.8 1006.7 0.0
26/10:00am 18.4 16.6 13.3 72 2.9 SSE 15 19 8 10 1006.9 1006.8 0.0
26/09:30am 18.6 16.0 13.1 70 3.1 SE 19 22 10 12 1007.0 1006.9 0.0
26/09:00am 17.8 16.2 13.8 77 2.3 SSE 15 17 8 9 1006.9 1006.8 0.0
26/08:30am 17.7 16.3 14.4 81 1.9 SSE 15 19 8 10 1007.0 1006.9 0.0
26/08:00am 18.5 17.8 14.4 77 2.4 SW 11 17 6 9 1006.7 1006.6 0.0
26/07:30am 18.5 17.9 13.4 72 2.9 NNW 9 15 5 8 1006.5 1006.4 0.0
26/07:00am 18.2 16.5 12.5 69 3.2 NNW 13 19 7 10 1006.6 1006.5 0.0
26/06:30am 17.6 17.0 13.4 76 2.4 NNW 9 15 5 8 1006.5 1006.4 0.0
26/06:00am 18.0 17.0 13.4 74 2.6 N 11 15 6 8 1006.2 1006.1 0.0
26/05:30am 17.9 16.5 13.3 74 2.6 N 13 15 7 8 1005.9 1005.8 0.0
26/05:00am 17.9 17.0 13.7 76 2.4 NNW 11 15 6 8 1005.8 1005.7 0.0
26/04:30am 17.7 16.9 13.9 78 2.2 N 11 19 6 10 1005.9 1005.8 0.0
26/04:00am 17.6 16.0 13.9 79 2.1 NNW 15 22 8 12 1005.9 1005.8 0.0
26/03:30am 17.4 15.8 13.9 80 2.0 NNW 15 20 8 11 1006.0 1005.9 0.0
26/03:00am 17.5 15.9 13.8 79 2.1 NNW 15 19 8 10 1006.2 1006.1 0.0
26/02:30am 17.7 16.1 13.8 78 2.2 N 15 24 8 13 1006.6 1006.5 0.0
26/02:00am 17.5 16.2 13.8 79 2.1 N 13 20 7 11 1006.9 1006.8 0.0
26/01:30am 17.9 16.2 13.7 76 2.4 N 15 24 8 13 1007.1 1007.0 0.0

Latest Capital City Observations: Canberra | Sydney | Melbourne | Brisbane | Adelaide | Perth | Hobart | Darwin

Other formats

Comma delimited format used in spreadsheet applications
http://www.bom.gov.au/fwo/IDT60901/IDT60901.94975.axf

JavaScript Object Notation format (JSON) in row-major order
http://www.bom.gov.au/fwo/IDT60901/IDT60901.94975.json

Data quality

Most of these data are generated automatically and are frequently updated. Quality checks on data are not normally performed. It is possible for incorrect values to appear. Refer to information at About Latest Weather Observations and please check the disclaimer before using these data.